Asahi Maru No.16 — JD3024 — position and weather

sailwx.info

Track history (hours):
 
Tides and Currents Weather Stations Pressure Air Temp Water Temp Dewpoint Dewpoint Depression Visibility Wind Speed Wind Dir Waves Ship Positions

Asahi Maru No.16

Last reported at 2017-Sep-20 09:49 UTC. Time now 2017-Sep-23 23:48 UTC.
Position N 35°06' E 139°38'.

Length 75 m.

Type: Cargo ship. MMSI: 431001193.

Date/timePositionNaut miles runAvg speedWind from/ knotsBaromVisibWave heightAir tempDewpointWater temp
2017-Sep-20 09:49N 35°06' E 139°38'310.0
2017-Sep-20 09:30N 35°07' E 139°41'5 9.4
2017-Sep-20 08:55N 35°12' E 139°45'510.1
2017-Sep-20 08:25N 35°17' E 139°45'511.3
2017-Sep-20 07:58N 35°21' E 139°42'510.2
2017-Sep-20 07:30N 35°26' E 139°44'610.8
2017-Sep-20 07:00N 35°29' E 139°50'7 0.4
2017-Sep-19 13:19N 35°23' E 139°46'410.9
2017-Sep-19 12:58N 35°19' E 139°44'610.1
2017-Sep-19 12:25N 35°14' E 139°47'410.8
2017-Sep-19 12:00N 35°10' E 139°46'611.0
2017-Sep-19 11:30N 35°05' E 139°44'611.6
2017-Sep-19 10:58N 35°00' E 139°38'218 8.0
2017-Sep-18 07:42N 34°29' E 135°16'311.1
2017-Sep-18 07:24N 34°31' E 135°19'5 0.6
2017-Sep-17 22:41N 34°34' E 135°23'210.7
2017-Sep-17 22:28N 34°36' E 135°24'3 0.7
2017-Sep-17 18:14N 34°34' E 135°27'0 0.0
2017-Sep-17 15:32N 34°34' E 135°27'0 0.0
2017-Sep-17 15:14N 34°34' E 135°27'0 0.0
2017-Sep-17 14:50N 34°34' E 135°27'  
2017-Sep-14 09:31N 34°35' E 135°26'0 6.9
2017-Sep-14 09:30N 34°35' E 135°26'5 9.2
2017-Sep-14 08:56N 34°34' E 135°19'215 5.2
2017-Sep-12 15:41N 35°06' E 139°39'310.5
2017-Sep-12 15:22N 35°08' E 139°42'410.6
2017-Sep-12 15:00N 35°11' E 139°45'610.7
2017-Sep-12 14:24N 35°17' E 139°45'511.5
2017-Sep-12 13:56N 35°22' E 139°42'511.4
2017-Sep-12 13:30N 35°26' E 139°46'611.7
2017-Sep-12 13:00N 35°30' E 139°51'  
Track history (hours):
 
Tides and Currents Weather Stations Pressure Air Temp Water Temp Dewpoint Dewpoint Depression Visibility Wind Speed Wind Dir Waves Ship Positions

Asahi Maru No.16

Last reported at 2017-Sep-20 09:49 UTC. Time now 2017-Sep-23 23:48 UTC.
Position N 35°06' E 139°38'.

Length 75 m.

Type: Cargo ship. MMSI: 431001193.

Date/timePositionNaut miles runAvg speedWind from/ knotsBaromVisibWave heightAir tempDewpointWater temp
2017-Sep-20 09:49N 35°06' E 139°38'310.0
2017-Sep-20 09:30N 35°07' E 139°41'5 9.4
2017-Sep-20 08:55N 35°12' E 139°45'510.1
2017-Sep-20 08:25N 35°17' E 139°45'511.3
2017-Sep-20 07:58N 35°21' E 139°42'510.2
2017-Sep-20 07:30N 35°26' E 139°44'610.8
2017-Sep-20 07:00N 35°29' E 139°50'7 0.4
2017-Sep-19 13:19N 35°23' E 139°46'410.9
2017-Sep-19 12:58N 35°19' E 139°44'610.1
2017-Sep-19 12:25N 35°14' E 139°47'410.8
2017-Sep-19 12:00N 35°10' E 139°46'611.0
2017-Sep-19 11:30N 35°05' E 139°44'611.6
2017-Sep-19 10:58N 35°00' E 139°38'218 8.0
2017-Sep-18 07:42N 34°29' E 135°16'311.1
2017-Sep-18 07:24N 34°31' E 135°19'5 0.6
2017-Sep-17 22:41N 34°34' E 135°23'210.7
2017-Sep-17 22:28N 34°36' E 135°24'3 0.7
2017-Sep-17 18:14N 34°34' E 135°27'0 0.0
2017-Sep-17 15:32N 34°34' E 135°27'0 0.0
2017-Sep-17 15:14N 34°34' E 135°27'0 0.0
2017-Sep-17 14:50N 34°34' E 135°27'  
2017-Sep-14 09:31N 34°35' E 135°26'0 6.9
2017-Sep-14 09:30N 34°35' E 135°26'5 9.2
2017-Sep-14 08:56N 34°34' E 135°19'215 5.2
2017-Sep-12 15:41N 35°06' E 139°39'310.5
2017-Sep-12 15:22N 35°08' E 139°42'410.6
2017-Sep-12 15:00N 35°11' E 139°45'610.7
2017-Sep-12 14:24N 35°17' E 139°45'511.5
2017-Sep-12 13:56N 35°22' E 139°42'511.4
2017-Sep-12 13:30N 35°26' E 139°46'611.7
2017-Sep-12 13:00N 35°30' E 139°51'  

Dump ship's entire track history